This is the latest recevied weather packets stored in our database for station/object VK3BYD-3. If no packets are shown the sender has not sent any weather packets the latest 1 day(s).
| Time | Temp. | Humidity | Pressure | Rain* | Wind** | Luminosity | Snow |
|---|---|---|---|---|---|---|---|
| 1778087999 | 6.67° C | 91% | 1016.8 hPa | 0 mm | - | - | - |
| 1778077196 | 11.11° C | 96% | 1015.4 hPa | 0.51 mm | - | - | - |
| 1778076298 | 11.11° C | 95% | 1015.5 hPa | 0.51 mm | - | - | - |
| 1778075393 | 11.11° C | 95% | 1015.7 hPa | 0.51 mm | - | - | - |
| 1778069990 | 12.22° C | 85% | 1017 hPa | 0 mm | - | - | - |
| 1778069089 | 12.22° C | 84% | 1017.2 hPa | 0 mm | - | - | - |
| 1778067284 | 12.22° C | 85% | 1017.2 hPa | 0 mm | - | - | - |
| 1778065482 | 12.22° C | 85% | 1017.4 hPa | 0 mm | - | - | - |
| 1778063682 | 11.67° C | 87% | 1017.4 hPa | 0 mm | - | - | - |
| 1778062783 | 11.67° C | 87% | 1017.9 hPa | 0 mm | - | - | - |
| 1778061880 | 11.67° C | 87% | 1018 hPa | 0 mm | - | - | - |
| 1778060080 | 11.67° C | 87% | 1018.2 hPa | 0 mm | - | - | - |
| 1778059178 | 11.67° C | 87% | 1018.1 hPa | 0 mm | - | - | - |
| 1778058278 | 11.67° C | 87% | 1018.3 hPa | 0 mm | - | - | - |
| 1778057378 | 11.67° C | 87% | 1018.3 hPa | 0 mm | - | - | - |
| 1778056478 | 11.67° C | 88% | 1018.3 hPa | 0 mm | - | - | - |
| 1778054678 | 12.22° C | 87% | 1018.6 hPa | 0 mm | - | - | - |
| 1778053776 | 12.22° C | 86% | 1018.6 hPa | 0 mm | - | - | - |
| 1778052876 | 12.78° C | 86% | 1018.4 hPa | 0 mm | - | - | - |
| 1778049274 | 13.33° C | 82% | 1018.7 hPa | 0 mm | - | - | - |
| 1778048372 | 13.33° C | 81% | 1018.7 hPa | 0 mm | - | - | - |
| 1778045670 | 14.44° C | 79% | 1018.9 hPa | 0 mm | - | - | - |
| 1778044770 | 14.44° C | 79% | 1018.8 hPa | 0 mm | - | - | - |
| 1778043870 | 14.44° C | 80% | 1018.9 hPa | 0 mm | - | - | - |
| 1778042970 | 15° C | 78% | 1018.9 hPa | 0 mm | - | - | - |
* Rain latest hour (hover to see other rain measurements)
** Current wind speed in m/s (hover to see current wind gust speed)